createdAt,value
2017-09-19T00:00:27.346Z,23.4
2017-09-19T00:01:35.530Z,23.4
2017-09-19T00:02:43.527Z,23.4
2017-09-19T00:03:51.609Z,23.3
2017-09-19T00:04:59.698Z,23.4
2017-09-19T00:06:07.787Z,23.4
2017-09-19T00:07:15.874Z,23.3
2017-09-19T00:08:23.992Z,23.3
2017-09-19T00:09:32.054Z,23.3
2017-09-19T00:10:40.143Z,23.3
2017-09-19T00:11:48.228Z,23.3
2017-09-19T00:12:56.322Z,23.3
2017-09-19T00:14:04.405Z,23.3
2017-09-19T00:15:12.493Z,23.3
2017-09-19T00:16:20.584Z,23.3
2017-09-19T00:17:28.675Z,23.4
2017-09-19T00:18:36.760Z,23.3
2017-09-19T00:19:44.852Z,23.3
2017-09-19T00:20:52.938Z,23.3
2017-09-19T00:22:01.026Z,23.3
2017-09-19T00:23:09.114Z,23.2
2017-09-19T00:24:17.201Z,23.3
2017-09-19T00:25:25.289Z,23.2
2017-09-19T00:26:33.380Z,23.3
2017-09-19T00:27:41.483Z,23.2
2017-09-19T00:28:49.584Z,23.3
2017-09-19T00:29:57.660Z,23.2
2017-09-19T00:31:05.750Z,23.3
2017-09-19T00:32:13.842Z,23.2
2017-09-19T00:33:21.918Z,23.2
2017-09-19T00:34:30.013Z,23.2
2017-09-19T00:35:38.105Z,23.2
2017-09-19T00:36:46.189Z,23.1
2017-09-19T00:37:54.276Z,23.1
2017-09-19T00:39:02.372Z,23.1
2017-09-19T00:40:10.460Z,23.2
2017-09-19T00:41:18.549Z,23.1
2017-09-19T00:42:26.635Z,23.2
2017-09-19T00:43:34.732Z,23.1
2017-09-19T00:44:42.814Z,23.2
2017-09-19T00:45:50.902Z,23.1
2017-09-19T00:46:58.990Z,23.1
2017-09-19T00:48:07.078Z,23.2
2017-09-19T00:49:15.166Z,23.1
2017-09-19T00:50:23.255Z,23.2
2017-09-19T00:51:31.341Z,23.1
2017-09-19T00:52:39.430Z,23.2
2017-09-19T00:53:47.530Z,23.2
2017-09-19T00:54:55.604Z,23.2
2017-09-19T00:56:03.694Z,23.1
2017-09-19T00:57:11.782Z,23.1
2017-09-19T00:58:19.869Z,23.1
2017-09-19T00:59:27.959Z,23.1
2017-09-19T01:00:36.046Z,23.1
2017-09-19T01:01:44.151Z,23.1
2017-09-19T01:02:52.219Z,23.1
2017-09-19T01:04:00.311Z,23.0
2017-09-19T01:05:08.398Z,23.1
2017-09-19T01:06:16.484Z,23.0
2017-09-19T01:07:24.571Z,23.1
2017-09-19T01:08:32.685Z,23.1
2017-09-19T01:09:40.756Z,23.1
2017-09-19T01:10:48.840Z,23.1
2017-09-19T01:11:56.928Z,23.1
2017-09-19T01:13:05.015Z,23.0
2017-09-19T01:14:13.103Z,23.0
2017-09-19T01:15:21.191Z,23.0
2017-09-19T01:16:29.287Z,22.9
2017-09-19T01:17:37.372Z,23.0
2017-09-19T01:18:45.459Z,22.9
2017-09-19T01:19:53.549Z,22.9
2017-09-19T01:21:01.635Z,22.9
2017-09-19T01:22:09.723Z,23.0
2017-09-19T01:23:17.815Z,22.9
2017-09-19T01:24:25.900Z,23.0
2017-09-19T01:25:33.988Z,23.0
2017-09-19T01:26:42.081Z,22.9
2017-09-19T01:27:50.165Z,23.0
2017-09-19T01:28:58.253Z,22.9
2017-09-19T01:30:06.346Z,23.0
2017-09-19T01:31:14.428Z,22.9
2017-09-19T01:32:22.521Z,22.8
2017-09-19T01:33:30.602Z,22.8
2017-09-19T01:34:38.692Z,22.8
2017-09-19T01:35:46.779Z,22.9
2017-09-19T01:36:54.874Z,22.9
2017-09-19T01:38:02.969Z,22.8
2017-09-19T01:39:11.058Z,22.8
2017-09-19T01:40:19.145Z,22.9
2017-09-19T01:41:27.238Z,22.8
2017-09-19T01:42:35.321Z,22.8
2017-09-19T01:43:43.415Z,22.8
2017-09-19T01:44:51.503Z,22.8
2017-09-19T01:45:59.587Z,22.8
2017-09-19T01:47:07.675Z,22.8
2017-09-19T01:48:15.761Z,22.8
2017-09-19T01:49:23.858Z,22.7
2017-09-19T01:50:31.939Z,22.8
2017-09-19T01:51:40.026Z,22.8
2017-09-19T01:52:48.114Z,22.8
2017-09-19T01:53:56.201Z,22.8
2017-09-19T01:55:04.292Z,22.8
2017-09-19T01:56:12.377Z,22.8
2017-09-19T01:57:20.469Z,22.8
2017-09-19T01:58:28.551Z,22.8
2017-09-19T01:59:36.639Z,22.8
2017-09-19T02:00:44.726Z,22.8
2017-09-19T02:01:52.813Z,22.8
2017-09-19T02:03:00.900Z,22.6
2017-09-19T02:04:08.990Z,22.6
2017-09-19T02:05:17.078Z,22.6
2017-09-19T02:06:25.164Z,22.6
2017-09-19T02:07:33.250Z,22.7
2017-09-19T02:08:41.338Z,22.7
2017-09-19T02:09:49.426Z,22.6
2017-09-19T02:10:57.514Z,22.7
2017-09-19T02:12:05.623Z,22.7
2017-09-19T02:13:13.707Z,22.6
2017-09-19T02:14:21.782Z,22.6
2017-09-19T02:15:29.868Z,22.6
2017-09-19T02:16:37.956Z,22.6
2017-09-19T02:17:46.043Z,22.6
2017-09-19T02:18:54.129Z,22.6
2017-09-19T02:20:02.217Z,22.6
2017-09-19T02:21:10.307Z,22.6
2017-09-19T02:22:18.395Z,22.6
2017-09-19T02:23:26.482Z,22.6
2017-09-19T02:24:34.580Z,22.5
2017-09-19T02:25:42.667Z,22.5
2017-09-19T02:26:50.756Z,22.6
2017-09-19T02:27:58.844Z,22.6
2017-09-19T02:29:06.930Z,22.5
2017-09-19T02:30:15.032Z,22.6
2017-09-19T02:31:23.108Z,22.5
2017-09-19T02:32:31.193Z,22.5
2017-09-19T02:33:39.281Z,22.6
2017-09-19T02:34:47.367Z,22.5
2017-09-19T02:35:55.458Z,22.6
2017-09-19T02:37:03.543Z,22.5
2017-09-19T02:38:11.641Z,22.5
2017-09-19T02:39:19.730Z,22.5
2017-09-19T02:40:27.829Z,22.5
2017-09-19T02:41:35.924Z,22.5
2017-09-19T02:42:44.017Z,22.5
2017-09-19T02:43:52.106Z,22.5
2017-09-19T02:45:00.193Z,22.5
2017-09-19T02:46:08.277Z,22.4
2017-09-19T02:47:16.364Z,22.5
2017-09-19T02:48:24.456Z,22.5
2017-09-19T02:49:32.542Z,22.4
2017-09-19T02:50:40.629Z,22.4
2017-09-19T02:51:48.716Z,22.4
2017-09-19T02:52:56.803Z,22.4
2017-09-19T02:54:04.891Z,22.4
2017-09-19T02:55:12.977Z,22.3
2017-09-19T02:56:21.077Z,22.4
2017-09-19T02:57:29.161Z,22.4
2017-09-19T02:58:37.248Z,22.4
2017-09-19T02:59:45.358Z,22.4
2017-09-19T03:00:53.424Z,22.3
2017-09-19T03:02:01.511Z,22.3
2017-09-19T03:03:09.598Z,22.3
2017-09-19T03:04:17.684Z,22.3
2017-09-19T03:05:25.776Z,22.3
2017-09-19T03:06:33.870Z,22.3
2017-09-19T03:07:41.958Z,22.3
2017-09-19T03:08:50.044Z,22.3
2017-09-19T03:09:58.132Z,22.2
2017-09-19T03:11:06.315Z,22.3
2017-09-19T03:12:14.310Z,22.3
2017-09-19T03:13:22.423Z,22.3
2017-09-19T03:14:30.511Z,22.2
2017-09-19T03:15:38.599Z,22.2
2017-09-19T03:16:46.710Z,22.2
2017-09-19T03:17:54.776Z,22.2
2017-09-19T03:19:02.868Z,22.2
2017-09-19T03:20:11.038Z,22.2
2017-09-19T03:21:19.038Z,22.1
2017-09-19T03:22:27.125Z,22.1
2017-09-19T03:23:35.211Z,22.1
2017-09-19T03:24:43.297Z,22.0
2017-09-19T03:25:51.385Z,22.1
2017-09-19T03:26:59.470Z,22.1
2017-09-19T03:28:07.560Z,22.1
2017-09-19T03:29:15.647Z,22.1
2017-09-19T03:30:23.738Z,22.1
2017-09-19T03:31:31.821Z,22.0
2017-09-19T03:32:39.908Z,22.1
2017-09-19T03:33:47.994Z,22.1
2017-09-19T03:34:56.080Z,22.0
2017-09-19T03:36:04.170Z,22.0
2017-09-19T03:37:12.268Z,21.9
2017-09-19T03:38:20.351Z,21.9
2017-09-19T03:39:28.433Z,22.0
2017-09-19T03:40:36.519Z,21.9
2017-09-19T03:41:44.607Z,21.9
2017-09-19T03:42:52.694Z,21.9
2017-09-19T03:44:00.782Z,22.0
2017-09-19T03:45:08.865Z,21.9
2017-09-19T03:46:16.965Z,21.9
2017-09-19T03:47:25.048Z,22.0
2017-09-19T03:48:33.137Z,21.9
2017-09-19T03:49:41.223Z,22.0
2017-09-19T03:50:49.309Z,21.9
2017-09-19T03:51:57.398Z,21.9
2017-09-19T03:53:05.486Z,21.9
2017-09-19T03:54:13.569Z,21.9
2017-09-19T03:55:21.665Z,21.9
2017-09-19T03:56:29.746Z,21.9
2017-09-19T03:57:37.830Z,21.8
2017-09-19T03:58:45.921Z,21.8
2017-09-19T03:59:54.014Z,21.8
2017-09-19T04:01:02.096Z,21.8
2017-09-19T04:02:10.178Z,21.7
2017-09-19T04:03:18.271Z,21.8
2017-09-19T04:04:26.358Z,21.8
2017-09-19T04:05:34.457Z,21.8
2017-09-19T04:06:42.542Z,21.8
2017-09-19T04:07:50.633Z,21.8
2017-09-19T04:08:58.721Z,21.7
2017-09-19T04:10:06.806Z,21.7
2017-09-19T04:11:14.895Z,21.7
2017-09-19T04:12:22.981Z,21.7
2017-09-19T04:13:31.068Z,21.7
2017-09-19T04:14:39.157Z,21.7
2017-09-19T04:15:47.244Z,21.7
2017-09-19T04:16:55.327Z,21.7
2017-09-19T04:18:03.419Z,21.7
2017-09-19T04:19:11.499Z,21.7
2017-09-19T04:20:19.664Z,21.7
2017-09-19T04:21:27.675Z,21.7
2017-09-19T04:22:35.763Z,21.7
2017-09-19T04:23:43.848Z,21.7
2017-09-19T04:24:51.937Z,21.6
2017-09-19T04:26:00.031Z,21.7
2017-09-19T04:27:08.109Z,21.6
2017-09-19T04:28:16.195Z,21.6
2017-09-19T04:29:24.283Z,21.6
2017-09-19T04:30:32.371Z,21.7
2017-09-19T04:31:40.458Z,21.6
2017-09-19T04:32:48.542Z,21.6
2017-09-19T04:33:56.731Z,21.7
2017-09-19T04:35:04.740Z,21.6
2017-09-19T04:36:12.845Z,21.6
2017-09-19T04:37:21.066Z,21.6
2017-09-19T04:38:29.111Z,21.7
2017-09-19T04:39:37.195Z,21.6
2017-09-19T04:40:45.292Z,21.7
2017-09-19T04:41:53.842Z,21.6
2017-09-19T04:43:01.456Z,21.6
2017-09-19T04:44:09.542Z,21.6
2017-09-19T04:45:17.628Z,21.6
2017-09-19T04:46:25.718Z,21.6
2017-09-19T04:47:33.805Z,21.6
2017-09-19T04:48:42.636Z,21.6
2017-09-19T04:49:49.979Z,21.5
2017-09-19T04:50:58.065Z,21.5
2017-09-19T04:52:06.336Z,21.5
2017-09-19T04:53:14.242Z,21.6
2017-09-19T04:54:22.328Z,21.6
2017-09-19T04:55:30.414Z,21.5
2017-09-19T04:56:38.501Z,21.5
2017-09-19T04:57:46.590Z,21.5
2017-09-19T04:58:54.681Z,21.6
2017-09-19T05:00:02.760Z,21.5
2017-09-19T05:01:10.849Z,21.6
2017-09-19T05:02:18.932Z,21.5
2017-09-19T05:03:27.020Z,21.4
2017-09-19T05:04:35.104Z,21.5
2017-09-19T05:05:43.190Z,21.4
2017-09-19T05:06:51.278Z,21.4
2017-09-19T05:07:59.365Z,21.4
2017-09-19T05:09:07.451Z,21.3
2017-09-19T05:10:15.537Z,21.4
2017-09-19T05:11:23.626Z,21.4
2017-09-19T05:12:31.713Z,21.3
2017-09-19T05:13:39.798Z,21.3
2017-09-19T05:14:47.888Z,21.4
2017-09-19T05:15:55.971Z,21.3
2017-09-19T05:17:04.057Z,21.3
2017-09-19T05:18:12.144Z,21.3
2017-09-19T05:19:20.300Z,21.3
2017-09-19T05:20:28.317Z,21.3
2017-09-19T05:21:36.410Z,21.4
2017-09-19T05:22:44.493Z,21.3
2017-09-19T05:23:52.574Z,21.3
2017-09-19T05:25:00.661Z,21.3
2017-09-19T05:26:08.748Z,21.3
2017-09-19T05:27:16.837Z,21.3
2017-09-19T05:28:24.922Z,21.3
2017-09-19T05:29:33.013Z,21.3
2017-09-19T05:30:41.097Z,21.3
2017-09-19T05:31:49.179Z,21.3
2017-09-19T05:32:57.266Z,21.2
2017-09-19T05:34:05.352Z,21.3
2017-09-19T05:35:13.439Z,21.2
2017-09-19T05:36:21.529Z,21.2
2017-09-19T05:37:29.613Z,21.2
2017-09-19T05:38:37.736Z,21.2
2017-09-19T05:39:45.787Z,21.3
2017-09-19T05:40:53.874Z,21.2
2017-09-19T05:42:01.959Z,21.1
2017-09-19T05:43:10.045Z,21.2
2017-09-19T05:44:18.133Z,21.1
2017-09-19T05:45:26.218Z,21.1
2017-09-19T05:46:34.317Z,21.1
2017-09-19T05:47:42.390Z,21.2
2017-09-19T05:48:50.478Z,21.2
2017-09-19T05:49:58.573Z,21.2
2017-09-19T05:51:06.652Z,21.1
2017-09-19T05:52:14.737Z,21.1
2017-09-19T05:53:22.823Z,21.1
2017-09-19T05:54:30.912Z,21.0
2017-09-19T05:55:38.998Z,21.0
2017-09-19T05:56:47.165Z,21.1
2017-09-19T05:57:55.172Z,21.1
2017-09-19T05:59:03.258Z,21.1
2017-09-19T06:00:11.367Z,21.1
2017-09-19T06:01:19.431Z,21.1
2017-09-19T06:02:27.516Z,21.1
2017-09-19T06:03:35.603Z,21.1
2017-09-19T06:04:43.717Z,21.0
2017-09-19T06:05:51.805Z,21.0
2017-09-19T06:06:59.888Z,21.0
2017-09-19T06:08:08.628Z,21.1
2017-09-19T06:09:16.612Z,21.1
2017-09-19T06:10:24.700Z,21.1
2017-09-19T06:11:32.787Z,21.0
2017-09-19T06:12:40.873Z,21.0
2017-09-19T06:13:48.967Z,21.0
2017-09-19T06:14:57.053Z,21.0
2017-09-19T06:16:05.139Z,21.1
2017-09-19T06:17:13.223Z,21.0
2017-09-19T06:18:21.311Z,20.9
2017-09-19T06:19:29.399Z,21.0
2017-09-19T06:20:37.485Z,21.0
2017-09-19T06:21:45.571Z,20.9
2017-09-19T06:22:53.658Z,20.9
2017-09-19T06:24:01.745Z,20.9
2017-09-19T06:25:09.831Z,21.0
2017-09-19T06:26:17.919Z,20.9
2017-09-19T06:27:26.002Z,20.9
2017-09-19T06:28:34.088Z,20.9
2017-09-19T06:29:42.174Z,20.9
2017-09-19T06:30:50.262Z,20.9
2017-09-19T06:31:58.350Z,20.9
2017-09-19T06:33:06.437Z,20.9
2017-09-19T06:34:14.523Z,20.9
2017-09-19T06:35:22.623Z,20.9
2017-09-19T06:36:30.694Z,20.9
2017-09-19T06:37:38.781Z,20.9
2017-09-19T06:38:46.868Z,20.8
2017-09-19T06:39:54.960Z,20.9
2017-09-19T06:41:03.046Z,20.9
2017-09-19T06:42:11.135Z,20.9
2017-09-19T06:43:19.220Z,20.9
2017-09-19T06:44:27.307Z,20.9
2017-09-19T06:45:35.392Z,20.8
2017-09-19T06:46:43.486Z,20.8
2017-09-19T06:47:51.584Z,20.8
2017-09-19T06:48:59.675Z,20.8
2017-09-19T06:50:07.755Z,20.8
2017-09-19T06:51:15.840Z,20.8
2017-09-19T06:52:23.925Z,20.8
2017-09-19T06:53:32.012Z,20.8
2017-09-19T06:54:40.101Z,20.8
2017-09-19T06:55:48.187Z,20.7
2017-09-19T06:56:56.276Z,20.7
2017-09-19T06:58:04.362Z,20.8
2017-09-19T06:59:12.462Z,20.8
2017-09-19T07:00:20.559Z,20.7
2017-09-19T07:01:28.645Z,20.8
2017-09-19T07:02:36.732Z,20.7
2017-09-19T07:03:44.826Z,20.8
2017-09-19T07:04:52.904Z,20.7
2017-09-19T07:06:00.990Z,20.7
2017-09-19T07:07:09.078Z,20.7
2017-09-19T07:08:17.165Z,20.7
2017-09-19T07:09:25.252Z,20.7
2017-09-19T07:10:33.338Z,20.8
2017-09-19T07:11:41.424Z,20.7
2017-09-19T07:12:49.521Z,20.7
2017-09-19T07:13:57.607Z,20.7
2017-09-19T07:15:05.693Z,20.7
2017-09-19T07:16:13.786Z,20.7
2017-09-19T07:17:21.867Z,20.7
2017-09-19T07:18:29.953Z,20.7
2017-09-19T07:19:38.054Z,20.6
2017-09-19T07:20:46.142Z,20.7
2017-09-19T07:21:54.250Z,20.6
2017-09-19T07:23:02.314Z,20.6
2017-09-19T07:24:10.406Z,20.6
2017-09-19T07:25:18.492Z,20.7
2017-09-19T07:26:26.590Z,20.6
2017-09-19T07:27:34.675Z,20.6
2017-09-19T07:28:42.761Z,20.6
2017-09-19T07:29:50.866Z,20.6
2017-09-19T07:30:58.950Z,20.5
2017-09-19T07:32:07.032Z,20.6
2017-09-19T07:33:15.118Z,20.5
2017-09-19T07:34:23.211Z,20.5
2017-09-19T07:35:31.321Z,20.6
2017-09-19T07:36:39.376Z,20.5
2017-09-19T07:37:47.464Z,20.5
2017-09-19T07:38:55.550Z,20.5
2017-09-19T07:40:03.636Z,20.6
2017-09-19T07:41:11.723Z,20.6
2017-09-19T07:42:19.809Z,20.5
2017-09-19T07:43:27.894Z,20.6
2017-09-19T07:44:35.985Z,20.5
2017-09-19T07:45:44.075Z,20.5
2017-09-19T07:46:52.160Z,20.6
2017-09-19T07:48:00.246Z,20.5
2017-09-19T07:49:08.331Z,20.5
2017-09-19T07:50:16.418Z,20.6
2017-09-19T07:51:24.504Z,20.5
2017-09-19T07:52:32.591Z,20.4
2017-09-19T07:53:40.678Z,20.4
2017-09-19T07:54:48.763Z,20.4
2017-09-19T07:55:56.852Z,20.5
2017-09-19T07:57:04.940Z,20.4
2017-09-19T07:58:13.027Z,20.4
2017-09-19T07:59:21.165Z,20.4
2017-09-19T08:00:29.203Z,20.5
2017-09-19T08:01:37.291Z,20.5
2017-09-19T08:02:45.396Z,20.4
2017-09-19T08:03:53.464Z,20.5
2017-09-19T08:05:01.559Z,20.4
2017-09-19T08:06:09.636Z,20.4
2017-09-19T08:07:17.729Z,20.5
2017-09-19T08:08:25.810Z,20.4
2017-09-19T08:09:33.895Z,20.5
2017-09-19T08:10:41.980Z,20.5
2017-09-19T08:11:50.067Z,20.5
2017-09-19T08:12:58.154Z,20.5
2017-09-19T08:14:06.245Z,20.4
2017-09-19T08:15:14.337Z,20.3
2017-09-19T08:16:22.416Z,20.5
2017-09-19T08:17:30.508Z,20.4
2017-09-19T08:18:38.600Z,20.4
2017-09-19T08:19:46.681Z,20.4
2017-09-19T08:20:54.774Z,20.5
2017-09-19T08:22:02.853Z,20.3
2017-09-19T08:23:10.962Z,20.5
2017-09-19T08:24:19.060Z,20.4
2017-09-19T08:25:27.144Z,20.4
2017-09-19T08:26:35.232Z,20.4
2017-09-19T08:27:43.318Z,20.4
2017-09-19T08:28:51.403Z,20.3
2017-09-19T08:29:59.489Z,20.4
2017-09-19T08:31:07.574Z,20.4
2017-09-19T08:32:15.662Z,20.4
2017-09-19T08:33:23.749Z,20.4
2017-09-19T08:34:31.834Z,20.4
2017-09-19T08:35:39.921Z,20.4
2017-09-19T08:36:48.005Z,20.3
2017-09-19T08:37:56.092Z,20.4
2017-09-19T08:39:04.179Z,20.4
2017-09-19T08:40:12.265Z,20.3
2017-09-19T08:41:20.350Z,20.3
2017-09-19T08:42:28.442Z,20.4
2017-09-19T08:43:36.524Z,20.3
2017-09-19T08:44:44.610Z,20.3
2017-09-19T08:45:52.791Z,20.4
2017-09-19T08:47:00.782Z,20.3
2017-09-19T08:48:08.871Z,20.3
2017-09-19T08:49:16.960Z,20.3
2017-09-19T08:50:25.046Z,20.3
2017-09-19T08:51:33.129Z,20.3
2017-09-19T08:52:41.223Z,20.3
2017-09-19T08:53:49.302Z,20.3
2017-09-19T08:54:57.387Z,20.3
2017-09-19T08:56:05.490Z,20.3
2017-09-19T08:57:13.562Z,20.3
2017-09-19T08:58:21.649Z,20.3
2017-09-19T08:59:29.736Z,20.3
2017-09-19T09:00:37.820Z,20.3
2017-09-19T09:01:45.908Z,20.3
2017-09-19T09:02:53.993Z,20.3
2017-09-19T09:04:02.079Z,20.3
2017-09-19T09:05:10.166Z,20.2
2017-09-19T09:06:18.252Z,20.3
2017-09-19T09:07:26.338Z,20.2
2017-09-19T09:08:34.425Z,20.3
2017-09-19T09:09:42.509Z,20.3
2017-09-19T09:10:50.597Z,20.3
2017-09-19T09:11:58.685Z,20.3
2017-09-19T09:13:06.769Z,20.3
2017-09-19T09:14:14.857Z,20.2
2017-09-19T09:15:22.955Z,20.2
2017-09-19T09:16:31.029Z,20.2
2017-09-19T09:17:39.116Z,20.2
2017-09-19T09:18:47.201Z,20.3
2017-09-19T09:19:55.285Z,20.3
2017-09-19T09:21:03.375Z,20.2
2017-09-19T09:22:11.459Z,20.3
2017-09-19T09:23:19.546Z,20.2
2017-09-19T09:24:27.632Z,20.3
2017-09-19T09:25:35.718Z,20.3
2017-09-19T09:26:43.805Z,20.1
2017-09-19T09:27:51.891Z,20.3
2017-09-19T09:29:00.006Z,20.3
2017-09-19T09:30:08.091Z,20.2
2017-09-19T09:31:16.177Z,20.2
2017-09-19T09:32:24.262Z,20.2
2017-09-19T09:33:32.350Z,20.2
2017-09-19T09:34:40.433Z,20.2
2017-09-19T09:35:48.520Z,20.2
2017-09-19T09:36:56.621Z,20.2
2017-09-19T09:38:04.709Z,20.2
2017-09-19T09:39:12.792Z,20.2
2017-09-19T09:40:20.879Z,20.3
2017-09-19T09:41:28.981Z,20.2
2017-09-19T09:42:37.049Z,20.2
2017-09-19T09:43:45.135Z,20.2
2017-09-19T09:44:53.239Z,20.2
2017-09-19T09:46:01.326Z,20.2
2017-09-19T09:47:09.414Z,20.1
2017-09-19T09:48:17.504Z,20.2
2017-09-19T09:49:25.586Z,20.2
2017-09-19T09:50:33.682Z,20.2
2017-09-19T09:51:41.759Z,20.1
2017-09-19T09:52:49.846Z,20.1
2017-09-19T09:53:57.932Z,20.1
2017-09-19T09:55:06.019Z,20.2
2017-09-19T09:56:14.147Z,20.1
2017-09-19T09:57:22.188Z,20.2
2017-09-19T09:58:30.275Z,20.1
2017-09-19T09:59:38.362Z,20.2
2017-09-19T10:00:46.448Z,20.2
2017-09-19T10:01:54.530Z,20.1
2017-09-19T10:03:02.621Z,20.1
2017-09-19T10:04:10.706Z,20.2
2017-09-19T10:05:18.792Z,20.1
2017-09-19T10:06:26.878Z,20.1
2017-09-19T10:07:34.965Z,20.1
2017-09-19T10:08:43.050Z,20.1
2017-09-19T10:09:51.136Z,20.1
2017-09-19T10:10:59.222Z,20.1
2017-09-19T10:12:07.309Z,20.1
2017-09-19T10:13:15.396Z,20.1
2017-09-19T10:14:23.482Z,20.1
2017-09-19T10:15:31.568Z,20.0
2017-09-19T10:16:39.654Z,20.0
2017-09-19T10:17:47.744Z,20.1
2017-09-19T10:18:55.826Z,20.1
2017-09-19T10:20:03.912Z,20.1
2017-09-19T10:21:11.999Z,20.1
2017-09-19T10:22:20.083Z,20.1
2017-09-19T10:23:28.173Z,20.1
2017-09-19T10:24:36.254Z,20.0
2017-09-19T10:25:44.342Z,20.1
2017-09-19T10:26:52.428Z,20.1
2017-09-19T10:28:00.515Z,20.1
2017-09-19T10:29:08.609Z,20.1
2017-09-19T10:30:16.695Z,20.0
2017-09-19T10:31:24.782Z,20.1
2017-09-19T10:32:32.873Z,20.0
2017-09-19T10:33:40.961Z,20.1
2017-09-19T10:34:49.053Z,20.0
2017-09-19T10:35:57.131Z,20.0
2017-09-19T10:37:05.220Z,20.0
2017-09-19T10:38:13.304Z,20.0
2017-09-19T10:39:21.392Z,20.0
2017-09-19T10:40:29.480Z,20.0
2017-09-19T10:41:37.564Z,20.0
2017-09-19T10:42:45.650Z,20.0
2017-09-19T10:43:53.735Z,20.0
2017-09-19T10:45:01.822Z,20.0
2017-09-19T10:46:09.907Z,20.0
2017-09-19T10:47:17.994Z,19.9
2017-09-19T10:48:26.082Z,20.0
2017-09-19T10:49:34.173Z,20.0
2017-09-19T10:50:42.252Z,19.9
2017-09-19T10:51:50.336Z,19.9
2017-09-19T10:52:58.422Z,19.9
2017-09-19T10:54:06.507Z,20.0
2017-09-19T10:55:14.596Z,20.0
2017-09-19T10:56:22.683Z,20.0
2017-09-19T10:57:30.820Z,19.9
2017-09-19T10:58:38.865Z,20.0
2017-09-19T10:59:46.944Z,19.9
2017-09-19T11:00:55.032Z,19.9
2017-09-19T11:02:03.125Z,19.9
2017-09-19T11:03:11.204Z,19.9
2017-09-19T11:04:19.291Z,19.9
2017-09-19T11:05:27.376Z,20.0
2017-09-19T11:06:35.462Z,20.0
2017-09-19T11:07:43.550Z,19.9
2017-09-19T11:08:51.636Z,20.0
2017-09-19T11:09:59.719Z,20.0
2017-09-19T11:11:07.807Z,19.9
2017-09-19T11:12:15.894Z,19.9
2017-09-19T11:13:23.981Z,19.9
2017-09-19T11:14:32.141Z,19.9
2017-09-19T11:15:40.228Z,19.9
2017-09-19T11:16:48.332Z,19.9
2017-09-19T11:17:56.460Z,19.9
2017-09-19T11:19:04.487Z,19.9
2017-09-19T11:20:12.571Z,19.8
2017-09-19T11:21:20.655Z,19.9
2017-09-19T11:22:28.742Z,19.9
2017-09-19T11:23:36.828Z,19.9
2017-09-19T11:24:44.916Z,19.8
2017-09-19T11:25:53.002Z,19.9
2017-09-19T11:27:01.089Z,19.9
2017-09-19T11:28:09.183Z,19.9
2017-09-19T11:29:17.268Z,19.9
2017-09-19T11:30:25.357Z,19.9
2017-09-19T11:31:33.444Z,19.9
2017-09-19T11:32:41.534Z,19.8
2017-09-19T11:33:49.616Z,19.9
2017-09-19T11:34:57.702Z,19.8
2017-09-19T11:36:05.791Z,19.8
2017-09-19T11:37:13.870Z,19.8
2017-09-19T11:38:21.956Z,19.8
2017-09-19T11:39:30.041Z,19.9
2017-09-19T11:40:38.129Z,19.8
2017-09-19T11:41:46.216Z,19.8
2017-09-19T11:42:54.301Z,19.7
2017-09-19T11:44:02.387Z,19.8
2017-09-19T11:45:10.473Z,19.8
2017-09-19T11:46:18.558Z,19.7
2017-09-19T11:47:26.646Z,19.7
2017-09-19T11:48:34.734Z,19.8
2017-09-19T11:49:42.867Z,19.7
2017-09-19T11:50:50.906Z,19.8
2017-09-19T11:51:58.991Z,19.8
2017-09-19T11:53:07.079Z,19.8
2017-09-19T11:54:15.165Z,19.8
2017-09-19T11:55:23.255Z,19.8
2017-09-19T11:56:31.336Z,19.7
2017-09-19T11:57:39.421Z,19.8
2017-09-19T11:58:47.511Z,19.8
2017-09-19T11:59:55.593Z,19.8
2017-09-19T12:01:03.680Z,19.7
2017-09-19T12:02:11.764Z,19.7
2017-09-19T12:03:19.851Z,19.7
2017-09-19T12:04:27.979Z,19.7
2017-09-19T12:05:36.025Z,19.8
2017-09-19T12:06:44.108Z,19.8
2017-09-19T12:07:52.192Z,19.7
2017-09-19T12:09:00.279Z,19.7
2017-09-19T12:10:08.377Z,19.8
2017-09-19T12:11:16.509Z,19.8
2017-09-19T12:12:24.543Z,19.7
2017-09-19T12:13:32.635Z,19.8
2017-09-19T12:14:40.725Z,19.7
2017-09-19T12:15:48.806Z,19.8
2017-09-19T12:16:56.896Z,19.7
2017-09-19T12:18:04.986Z,19.7
2017-09-19T12:19:13.067Z,19.7
2017-09-19T12:20:21.152Z,19.7
2017-09-19T12:21:29.239Z,19.7
2017-09-19T12:22:37.324Z,19.7
2017-09-19T12:23:45.410Z,19.7
2017-09-19T12:24:53.494Z,19.7
2017-09-19T12:26:01.579Z,19.7
2017-09-19T12:27:09.666Z,19.8
2017-09-19T12:28:17.752Z,19.7
2017-09-19T12:29:25.837Z,19.7
2017-09-19T12:30:33.928Z,19.7
2017-09-19T12:31:42.010Z,19.7
2017-09-19T12:32:50.097Z,19.7
2017-09-19T12:33:58.181Z,19.7
2017-09-19T12:35:06.266Z,19.7
2017-09-19T12:36:14.350Z,19.8
2017-09-19T12:37:22.437Z,19.7
2017-09-19T12:38:30.522Z,19.6
2017-09-19T12:39:38.609Z,19.7
2017-09-19T12:40:46.696Z,19.7
2017-09-19T12:41:54.784Z,19.7
2017-09-19T12:43:02.865Z,19.7
2017-09-19T12:44:10.951Z,19.6
2017-09-19T12:45:19.037Z,19.7
2017-09-19T12:46:27.124Z,19.7
2017-09-19T12:47:35.210Z,19.7
2017-09-19T12:48:43.295Z,19.7
2017-09-19T12:49:51.391Z,19.7
2017-09-19T12:50:59.499Z,19.7
2017-09-19T12:52:07.561Z,19.7
2017-09-19T12:53:15.646Z,19.7
2017-09-19T12:54:23.735Z,19.7
2017-09-19T12:55:31.820Z,19.6
2017-09-19T12:56:39.905Z,19.7
2017-09-19T12:57:47.991Z,19.6
2017-09-19T12:58:56.076Z,19.7
2017-09-19T13:00:04.163Z,19.7
2017-09-19T13:01:12.251Z,19.7
2017-09-19T13:02:20.332Z,19.6
2017-09-19T13:03:28.419Z,19.7
2017-09-19T13:04:36.507Z,19.6
2017-09-19T13:05:44.590Z,19.7
2017-09-19T13:06:52.676Z,19.7
2017-09-19T13:08:00.763Z,19.7
2017-09-19T13:09:08.848Z,19.7
2017-09-19T13:10:16.938Z,19.7
2017-09-19T13:11:25.020Z,19.7
2017-09-19T13:12:33.104Z,19.7
2017-09-19T13:13:41.194Z,19.7
2017-09-19T13:14:49.276Z,19.7
2017-09-19T13:15:57.369Z,19.6
2017-09-19T13:17:05.455Z,19.7
2017-09-19T13:18:13.545Z,19.7
2017-09-19T13:19:21.627Z,19.6
2017-09-19T13:20:29.705Z,19.7
2017-09-19T13:21:37.792Z,19.6
2017-09-19T13:22:45.877Z,19.6
2017-09-19T13:23:53.962Z,19.7
2017-09-19T13:25:02.049Z,19.7
2017-09-19T13:26:10.134Z,19.7
2017-09-19T13:27:18.221Z,19.7
2017-09-19T13:28:26.349Z,19.7
2017-09-19T13:29:34.391Z,19.6
2017-09-19T13:30:42.477Z,19.7
2017-09-19T13:31:50.564Z,19.6
2017-09-19T13:32:58.739Z,19.6
2017-09-19T13:34:06.733Z,19.6
2017-09-19T13:35:14.819Z,19.7
2017-09-19T13:36:22.910Z,19.6
2017-09-19T13:37:31.010Z,19.6
2017-09-19T13:38:39.088Z,19.6
2017-09-19T13:39:47.189Z,19.6
2017-09-19T13:40:55.249Z,19.5
2017-09-19T13:42:03.342Z,19.6
2017-09-19T13:43:11.445Z,19.6
2017-09-19T13:44:19.515Z,19.6
2017-09-19T13:45:27.602Z,19.6
2017-09-19T13:46:35.689Z,19.6
2017-09-19T13:47:43.773Z,19.6
2017-09-19T13:48:51.858Z,19.6
2017-09-19T13:49:59.942Z,19.5
2017-09-19T13:51:08.032Z,19.6
2017-09-19T13:52:16.115Z,19.6
2017-09-19T13:53:24.199Z,19.5
2017-09-19T13:54:32.285Z,19.6
2017-09-19T13:55:40.372Z,19.6
2017-09-19T13:56:48.458Z,19.5
2017-09-19T13:57:56.543Z,19.5
2017-09-19T13:59:04.627Z,19.6
2017-09-19T14:00:12.736Z,19.6
2017-09-19T14:01:20.806Z,19.6
2017-09-19T14:02:28.887Z,19.6
2017-09-19T14:03:36.973Z,19.5
2017-09-19T14:04:45.060Z,19.6
2017-09-19T14:05:53.143Z,19.6
2017-09-19T14:07:01.262Z,19.6
2017-09-19T14:08:09.314Z,19.5
2017-09-19T14:09:17.408Z,19.5
2017-09-19T14:10:25.493Z,19.6
2017-09-19T14:11:33.571Z,19.5
2017-09-19T14:12:41.657Z,19.5
2017-09-19T14:13:49.744Z,19.6
2017-09-19T14:14:57.828Z,19.6
2017-09-19T14:16:05.913Z,19.6
2017-09-19T14:17:14.000Z,19.6
2017-09-19T14:18:22.085Z,19.6
2017-09-19T14:19:30.168Z,19.6
2017-09-19T14:20:38.261Z,19.6
2017-09-19T14:21:46.348Z,19.6
2017-09-19T14:22:54.443Z,19.6
2017-09-19T14:24:02.528Z,19.6
2017-09-19T14:25:10.612Z,19.6
2017-09-19T14:26:18.718Z,19.5
2017-09-19T14:27:26.789Z,19.5
2017-09-19T14:28:34.910Z,19.5
2017-09-19T14:29:42.956Z,19.5
2017-09-19T14:30:51.098Z,19.5
2017-09-19T14:31:59.128Z,19.5
2017-09-19T14:33:07.213Z,19.5
2017-09-19T14:34:15.299Z,19.5
2017-09-19T14:35:23.383Z,19.5
2017-09-19T14:36:31.468Z,19.5
2017-09-19T14:37:39.556Z,19.6
2017-09-19T14:38:47.641Z,19.5
2017-09-19T14:39:55.728Z,19.4
2017-09-19T14:41:03.815Z,19.5
2017-09-19T14:42:11.902Z,19.5
2017-09-19T14:43:19.985Z,19.5
2017-09-19T14:44:28.071Z,19.5
2017-09-19T14:45:36.156Z,19.4
2017-09-19T14:46:44.241Z,19.6
2017-09-19T14:47:52.327Z,19.4
2017-09-19T14:49:00.421Z,19.4
2017-09-19T14:50:08.498Z,19.5
2017-09-19T14:51:16.587Z,19.5
2017-09-19T14:52:24.676Z,19.5
2017-09-19T14:53:32.778Z,19.4
2017-09-19T14:54:40.840Z,19.4
2017-09-19T14:55:48.927Z,19.4
2017-09-19T14:56:57.013Z,19.4
2017-09-19T14:58:05.097Z,19.4
2017-09-19T14:59:13.182Z,19.5
2017-09-19T15:00:21.269Z,19.4
2017-09-19T15:01:29.356Z,19.4
2017-09-19T15:02:37.440Z,19.4
2017-09-19T15:03:45.526Z,19.4
2017-09-19T15:04:53.616Z,19.5
2017-09-19T15:06:01.696Z,19.5